Terminal Aerodrome Forecast
Issued by NWS

Home | Current Version | Previous Version | Text Only | Print | Product List | Glossary On
Versions: 1 2 3 4 5 6 7 8 9 10 11 12 13 14 15 16 17 18 19 20 21 22 23 24 25 26 27 28
000
FTUS41 KBGM 201700
TAFELM
TAF
KELM 201740Z 2018/2118 VRB03KT P6SM -SHRA SCT020 OVC035
      TEMPO 2018/2021 2SM TSRA OVC020CB
     FM202100 16006KT P6SM OVC035
      TEMPO 2021/2024 5SM -SHRA
     FM210000 00000KT P6SM BKN050
     FM210700 00000KT 3SM BR SCT009 OVC025
      TEMPO 2108/2112 OVC009
     FM211600 25005KT P6SM -SHRA BKN035=

USA.gov is the U.S. government's official web portal to all federal, state and local government web resources and services.